Roos, Michigan
Current Conditions -  °F | °C
As of 4:33 AM on Saturday 25 Oct 2014 (Local Time) from KOSC Reporting Station
Haze Haze  
Wind Chill: 41°   Ceiling: Unl
Heat Index: 46°   Visibility: 4mi
Dew Point: 46°   Wind: 9mph
Humidity: 100%   Direction: 210°SSW
Pressure: 29.77"   Gusts: NA
Location:  44.2265°N, 83.986°W
Report Text: KOSC 250833Z AUTO 21008KT 4SM BR SCT090 07/07 A2977 RMK AO2 T00750075
Loading
Personal Weather Stations






























Interactive Weather Map
Tropical Storm Tracking
New forecast layout! Learn more

10-Day Weather Forecast

Advertisements
Track Severe Weather on mobile